sensor_id;sensor_type;location;lat;lon;timestamp;temperature;humidity
4376;DHT22;2202;50.866;12.750;2022-12-18T00:01:25;-10.00;91.00
4376;DHT22;2202;50.866;12.750;2022-12-18T00:03:53;-10.10;91.00
4376;DHT22;2202;50.866;12.750;2022-12-18T00:06:22;-10.20;91.00
4376;DHT22;2202;50.866;12.750;2022-12-18T00:08:50;-10.10;91.00
4376;DHT22;2202;50.866;12.750;2022-12-18T00:11:19;-10.10;91.00
4376;DHT22;2202;50.866;12.750;2022-12-18T00:13:46;-10.20;90.90
4376;DHT22;2202;50.866;12.750;2022-12-18T00:16:15;-10.20;90.70
4376;DHT22;2202;50.866;12.750;2022-12-18T00:18:42;-10.20;90.70
4376;DHT22;2202;50.866;12.750;2022-12-18T00:21:11;-10.20;90.60
4376;DHT22;2202;50.866;12.750;2022-12-18T00:23:41;-10.20;90.50
4376;DHT22;2202;50.866;12.750;2022-12-18T00:26:11;-10.20;90.30
4376;DHT22;2202;50.866;12.750;2022-12-18T00:28:38;-10.20;90.30
4376;DHT22;2202;50.866;12.750;2022-12-18T00:31:07;-10.20;90.20
4376;DHT22;2202;50.866;12.750;2022-12-18T00:33:34;-10.20;90.00
4376;DHT22;2202;50.866;12.750;2022-12-18T00:36:02;-10.20;89.80
4376;DHT22;2202;50.866;12.750;2022-12-18T00:38:29;-10.30;89.80
4376;DHT22;2202;50.866;12.750;2022-12-18T00:40:58;-10.30;89.80
4376;DHT22;2202;50.866;12.750;2022-12-18T00:43:25;-10.30;89.80
4376;DHT22;2202;50.866;12.750;2022-12-18T00:45:50;-10.30;90.00
4376;DHT22;2202;50.866;12.750;2022-12-18T00:48:17;-10.40;89.80
4376;DHT22;2202;50.866;12.750;2022-12-18T00:50:44;-10.40;90.00
4376;DHT22;2202;50.866;12.750;2022-12-18T00:53:11;-10.40;89.80
4376;DHT22;2202;50.866;12.750;2022-12-18T00:55:39;-10.40;90.00
4376;DHT22;2202;50.866;12.750;2022-12-18T00:58:07;-10.40;90.10
4376;DHT22;2202;50.866;12.750;2022-12-18T01:00:35;-10.40;90.00
4376;DHT22;2202;50.866;12.750;2022-12-18T01:03:02;-10.40;90.10
4376;DHT22;2202;50.866;12.750;2022-12-18T01:05:29;-10.40;90.20
4376;DHT22;2202;50.866;12.750;2022-12-18T01:07:57;-10.30;90.20
4376;DHT22;2202;50.866;12.750;2022-12-18T01:10:24;-10.30;90.20
4376;DHT22;2202;50.866;12.750;2022-12-18T01:12:51;-10.30;90.10
4376;DHT22;2202;50.866;12.750;2022-12-18T01:15:20;-10.30;90.20
4376;DHT22;2202;50.866;12.750;2022-12-18T01:17:47;-10.30;90.20
4376;DHT22;2202;50.866;12.750;2022-12-18T01:20:14;-10.30;90.10
4376;DHT22;2202;50.866;12.750;2022-12-18T01:22:41;-10.30;90.00
4376;DHT22;2202;50.866;12.750;2022-12-18T01:25:08;-10.30;89.80
4376;DHT22;2202;50.866;12.750;2022-12-18T01:27:35;-10.30;89.60
4376;DHT22;2202;50.866;12.750;2022-12-18T01:30:03;-10.30;89.60
4376;DHT22;2202;50.866;12.750;2022-12-18T01:32:31;-10.30;89.60
4376;DHT22;2202;50.866;12.750;2022-12-18T01:34:58;-10.30;89.60
4376;DHT22;2202;50.866;12.750;2022-12-18T01:37:25;-10.40;89.40
4376;DHT22;2202;50.866;12.750;2022-12-18T01:39:52;-10.40;89.60
4376;DHT22;2202;50.866;12.750;2022-12-18T01:42:20;-10.50;89.60
4376;DHT22;2202;50.866;12.750;2022-12-18T01:45:04;-10.50;90.10
4376;DHT22;2202;50.866;12.750;2022-12-18T01:47:36;-10.50;90.20
4376;DHT22;2202;50.866;12.750;2022-12-18T01:50:08;-10.40;90.50
4376;DHT22;2202;50.866;12.750;2022-12-18T01:52:36;-10.40;90.50
4376;DHT22;2202;50.866;12.750;2022-12-18T01:55:05;-10.40;90.30
4376;DHT22;2202;50.866;12.750;2022-12-18T01:57:32;-10.40;90.30
4376;DHT22;2202;50.866;12.750;2022-12-18T02:00:03;-10.40;90.30
4376;DHT22;2202;50.866;12.750;2022-12-18T02:02:32;-10.40;90.40
4376;DHT22;2202;50.866;12.750;2022-12-18T02:05:00;-10.40;90.30
4376;DHT22;2202;50.866;12.750;2022-12-18T02:07:33;-10.40;90.30
4376;DHT22;2202;50.866;12.750;2022-12-18T02:10:06;-10.50;90.30
4376;DHT22;2202;50.866;12.750;2022-12-18T02:12:42;-10.50;90.50
4376;DHT22;2202;50.866;12.750;2022-12-18T02:15:15;-10.40;90.50
4376;DHT22;2202;50.866;12.750;2022-12-18T02:17:49;-10.40;90.50
4376;DHT22;2202;50.866;12.750;2022-12-18T02:20:20;-10.40;90.20
4376;DHT22;2202;50.866;12.750;2022-12-18T02:23:01;-10.50;90.10
4376;DHT22;2202;50.866;12.750;2022-12-18T02:25:40;-10.50;90.10
4376;DHT22;2202;50.866;12.750;2022-12-18T02:28:15;-10.50;90.10
4376;DHT22;2202;50.866;12.750;2022-12-18T02:30:46;-10.50;89.80
4376;DHT22;2202;50.866;12.750;2022-12-18T02:33:15;-10.60;89.80
4376;DHT22;2202;50.866;12.750;2022-12-18T02:35:43;-10.60;89.80
4376;DHT22;2202;50.866;12.750;2022-12-18T02:38:12;-10.60;90.00
4376;DHT22;2202;50.866;12.750;2022-12-18T02:40:40;-10.60;89.80
4376;DHT22;2202;50.866;12.750;2022-12-18T02:43:09;-10.60;90.00
4376;DHT22;2202;50.866;12.750;2022-12-18T02:45:46;-10.50;90.00
4376;DHT22;2202;50.866;12.750;2022-12-18T02:48:13;-10.50;90.20
4376;DHT22;2202;50.866;12.750;2022-12-18T02:50:45;-10.50;90.20
4376;DHT22;2202;50.866;12.750;2022-12-18T02:53:18;-10.50;90.10
4376;DHT22;2202;50.866;12.750;2022-12-18T02:56:00;-10.50;90.10
4376;DHT22;2202;50.866;12.750;2022-12-18T02:58:32;-10.50;90.00
4376;DHT22;2202;50.866;12.750;2022-12-18T03:01:08;-10.60;89.80
4376;DHT22;2202;50.866;12.750;2022-12-18T03:03:38;-10.60;90.00
4376;DHT22;2202;50.866;12.750;2022-12-18T03:06:08;-10.60;90.10
4376;DHT22;2202;50.866;12.750;2022-12-18T03:08:39;-10.60;90.20
4376;DHT22;2202;50.866;12.750;2022-12-18T03:11:09;-10.60;90.10
4376;DHT22;2202;50.866;12.750;2022-12-18T03:13:39;-10.60;90.30
4376;DHT22;2202;50.866;12.750;2022-12-18T03:16:12;-10.60;90.30
4376;DHT22;2202;50.866;12.750;2022-12-18T03:18:44;-10.60;90.20
4376;DHT22;2202;50.866;12.750;2022-12-18T03:21:13;-10.50;90.00
4376;DHT22;2202;50.866;12.750;2022-12-18T03:23:45;-10.50;89.80
4376;DHT22;2202;50.866;12.750;2022-12-18T03:26:16;-10.50;89.80
4376;DHT22;2202;50.866;12.750;2022-12-18T03:28:47;-10.50;89.80
4376;DHT22;2202;50.866;12.750;2022-12-18T03:31:19;-10.50;89.80
4376;DHT22;2202;50.866;12.750;2022-12-18T03:33:52;-10.60;90.00
4376;DHT22;2202;50.866;12.750;2022-12-18T03:36:19;-10.60;90.00
4376;DHT22;2202;50.866;12.750;2022-12-18T03:38:46;-10.60;90.00
4376;DHT22;2202;50.866;12.750;2022-12-18T03:41:18;-10.70;90.00
4376;DHT22;2202;50.866;12.750;2022-12-18T03:43:51;-10.70;90.10
4376;DHT22;2202;50.866;12.750;2022-12-18T03:46:26;-10.70;90.30
4376;DHT22;2202;50.866;12.750;2022-12-18T03:49:01;-10.70;90.30
4376;DHT22;2202;50.866;12.750;2022-12-18T03:51:37;-10.70;90.10
4376;DHT22;2202;50.866;12.750;2022-12-18T03:54:08;-10.70;90.10
4376;DHT22;2202;50.866;12.750;2022-12-18T03:56:38;-10.70;90.00
4376;DHT22;2202;50.866;12.750;2022-12-18T03:59:08;-10.80;90.10
4376;DHT22;2202;50.866;12.750;2022-12-18T04:01:40;-10.70;90.00
4376;DHT22;2202;50.866;12.750;2022-12-18T04:04:10;-10.80;90.00
4376;DHT22;2202;50.866;12.750;2022-12-18T04:06:38;-10.80;90.00
4376;DHT22;2202;50.866;12.750;2022-12-18T04:09:05;-10.80;90.00
4376;DHT22;2202;50.866;12.750;2022-12-18T04:11:32;-10.90;90.00
4376;DHT22;2202;50.866;12.750;2022-12-18T04:13:59;-10.90;90.00
4376;DHT22;2202;50.866;12.750;2022-12-18T04:16:26;-10.90;90.00
4376;DHT22;2202;50.866;12.750;2022-12-18T04:18:55;-10.90;90.10
4376;DHT22;2202;50.866;12.750;2022-12-18T04:21:22;-10.90;90.00
4376;DHT22;2202;50.866;12.750;2022-12-18T04:23:49;-11.00;90.00
4376;DHT22;2202;50.866;12.750;2022-12-18T04:26:16;-11.00;90.00
4376;DHT22;2202;50.866;12.750;2022-12-18T04:28:42;-10.90;90.00
4376;DHT22;2202;50.866;12.750;2022-12-18T04:31:09;-11.00;90.00
4376;DHT22;2202;50.866;12.750;2022-12-18T04:33:36;-11.00;90.00
4376;DHT22;2202;50.866;12.750;2022-12-18T04:36:05;-10.90;90.00
4376;DHT22;2202;50.866;12.750;2022-12-18T04:38:32;-10.90;90.00
4376;DHT22;2202;50.866;12.750;2022-12-18T04:40:59;-11.00;90.00
4376;DHT22;2202;50.866;12.750;2022-12-18T04:43:26;-11.00;90.00
4376;DHT22;2202;50.866;12.750;2022-12-18T04:45:53;-11.00;89.80
4376;DHT22;2202;50.866;12.750;2022-12-18T04:48:20;-11.00;89.80
4376;DHT22;2202;50.866;12.750;2022-12-18T04:50:47;-11.00;89.80
4376;DHT22;2202;50.866;12.750;2022-12-18T04:53:16;-11.00;89.60
4376;DHT22;2202;50.866;12.750;2022-12-18T04:55:42;-11.10;89.40
4376;DHT22;2202;50.866;12.750;2022-12-18T04:58:09;-11.10;89.20
4376;DHT22;2202;50.866;12.750;2022-12-18T05:00:36;-11.20;89.00
4376;DHT22;2202;50.866;12.750;2022-12-18T05:03:03;-11.20;89.40
4376;DHT22;2202;50.866;12.750;2022-12-18T05:05:30;-11.20;89.60
4376;DHT22;2202;50.866;12.750;2022-12-18T05:07:57;-11.20;89.60
4376;DHT22;2202;50.866;12.750;2022-12-18T05:10:25;-11.20;89.60
4376;DHT22;2202;50.866;12.750;2022-12-18T05:12:52;-11.10;89.80
4376;DHT22;2202;50.866;12.750;2022-12-18T05:15:27;-11.20;89.80
4376;DHT22;2202;50.866;12.750;2022-12-18T05:17:53;-11.20;89.80
4376;DHT22;2202;50.866;12.750;2022-12-18T05:20:20;-11.10;90.10
4376;DHT22;2202;50.866;12.750;2022-12-18T05:22:47;-11.10;90.00
4376;DHT22;2202;50.866;12.750;2022-12-18T05:25:14;-11.10;90.00
4376;DHT22;2202;50.866;12.750;2022-12-18T05:27:43;-11.10;90.00
4376;DHT22;2202;50.866;12.750;2022-12-18T05:30:11;-11.10;90.20
4376;DHT22;2202;50.866;12.750;2022-12-18T05:32:39;-11.10;90.20
4376;DHT22;2202;50.866;12.750;2022-12-18T05:35:07;-11.00;90.20
4376;DHT22;2202;50.866;12.750;2022-12-18T05:37:35;-11.00;90.10
4376;DHT22;2202;50.866;12.750;2022-12-18T05:40:02;-11.00;90.10
4376;DHT22;2202;50.866;12.750;2022-12-18T05:42:29;-11.00;90.10
4376;DHT22;2202;50.866;12.750;2022-12-18T05:44:58;-11.00;90.20
4376;DHT22;2202;50.866;12.750;2022-12-18T05:47:24;-11.00;90.20
4376;DHT22;2202;50.866;12.750;2022-12-18T05:49:53;-11.00;90.30
4376;DHT22;2202;50.866;12.750;2022-12-18T05:52:19;-11.10;90.60
4376;DHT22;2202;50.866;12.750;2022-12-18T05:54:46;-11.10;90.80
4376;DHT22;2202;50.866;12.750;2022-12-18T05:57:13;-11.00;90.80
4376;DHT22;2202;50.866;12.750;2022-12-18T05:59:40;-10.90;90.80
4376;DHT22;2202;50.866;12.750;2022-12-18T06:02:08;-10.90;90.80
4376;DHT22;2202;50.866;12.750;2022-12-18T06:04:35;-10.90;90.80
4376;DHT22;2202;50.866;12.750;2022-12-18T06:07:02;-10.90;90.80
4376;DHT22;2202;50.866;12.750;2022-12-18T06:09:29;-10.90;90.80
4376;DHT22;2202;50.866;12.750;2022-12-18T06:11:56;-10.80;90.80
4376;DHT22;2202;50.866;12.750;2022-12-18T06:14:22;-10.90;90.70
4376;DHT22;2202;50.866;12.750;2022-12-18T06:16:50;-10.90;90.60
4376;DHT22;2202;50.866;12.750;2022-12-18T06:19:19;-11.00;90.50
4376;DHT22;2202;50.866;12.750;2022-12-18T06:21:46;-11.00;90.50
4376;DHT22;2202;50.866;12.750;2022-12-18T06:24:12;-11.00;90.50
4376;DHT22;2202;50.866;12.750;2022-12-18T06:26:40;-11.10;90.50
4376;DHT22;2202;50.866;12.750;2022-12-18T06:29:07;-11.10;90.50
4376;DHT22;2202;50.866;12.750;2022-12-18T06:31:33;-11.00;90.20
4376;DHT22;2202;50.866;12.750;2022-12-18T06:34:02;-11.10;90.10
4376;DHT22;2202;50.866;12.750;2022-12-18T06:36:31;-11.20;90.20
4376;DHT22;2202;50.866;12.750;2022-12-18T06:38:58;-11.20;90.30
4376;DHT22;2202;50.866;12.750;2022-12-18T06:41:25;-11.20;90.60
4376;DHT22;2202;50.866;12.750;2022-12-18T06:43:52;-11.20;90.70
4376;DHT22;2202;50.866;12.750;2022-12-18T06:46:19;-11.20;90.70
4376;DHT22;2202;50.866;12.750;2022-12-18T06:48:47;-11.10;90.70
4376;DHT22;2202;50.866;12.750;2022-12-18T06:51:19;-11.20;90.70
4376;DHT22;2202;50.866;12.750;2022-12-18T06:53:47;-11.20;90.70
4376;DHT22;2202;50.866;12.750;2022-12-18T06:56:14;-11.10;90.70
4376;DHT22;2202;50.866;12.750;2022-12-18T06:58:41;-11.10;90.70
4376;DHT22;2202;50.866;12.750;2022-12-18T07:01:10;-11.00;90.60
4376;DHT22;2202;50.866;12.750;2022-12-18T07:03:37;-11.00;90.50
4376;DHT22;2202;50.866;12.750;2022-12-18T07:06:05;-11.10;90.50
4376;DHT22;2202;50.866;12.750;2022-12-18T07:08:32;-11.10;90.60
4376;DHT22;2202;50.866;12.750;2022-12-18T07:11:03;-11.00;90.60
4376;DHT22;2202;50.866;12.750;2022-12-18T07:13:30;-11.10;90.50
4376;DHT22;2202;50.866;12.750;2022-12-18T07:16:04;-11.10;90.60
4376;DHT22;2202;50.866;12.750;2022-12-18T07:18:31;-11.10;90.70
4376;DHT22;2202;50.866;12.750;2022-12-18T07:20:57;-11.10;90.70
4376;DHT22;2202;50.866;12.750;2022-12-18T07:23:24;-11.00;90.80
4376;DHT22;2202;50.866;12.750;2022-12-18T07:25:51;-11.00;90.70
4376;DHT22;2202;50.866;12.750;2022-12-18T07:28:19;-10.90;90.60
4376;DHT22;2202;50.866;12.750;2022-12-18T07:30:46;-10.90;90.50
4376;DHT22;2202;50.866;12.750;2022-12-18T07:33:13;-11.00;90.50
4376;DHT22;2202;50.866;12.750;2022-12-18T07:35:40;-11.00;90.50
4376;DHT22;2202;50.866;12.750;2022-12-18T07:38:06;-11.00;90.50
4376;DHT22;2202;50.866;12.750;2022-12-18T07:40:33;-10.90;90.50
4376;DHT22;2202;50.866;12.750;2022-12-18T07:43:00;-10.90;90.60
4376;DHT22;2202;50.866;12.750;2022-12-18T07:45:28;-11.00;90.40
4376;DHT22;2202;50.866;12.750;2022-12-18T07:47:55;-11.10;90.50
4376;DHT22;2202;50.866;12.750;2022-12-18T07:50:22;-11.00;90.70
4376;DHT22;2202;50.866;12.750;2022-12-18T07:52:49;-11.00;90.70
4376;DHT22;2202;50.866;12.750;2022-12-18T07:55:16;-10.90;90.80
4376;DHT22;2202;50.866;12.750;2022-12-18T07:57:43;-10.90;90.80
4376;DHT22;2202;50.866;12.750;2022-12-18T08:00:11;-10.90;91.00
4376;DHT22;2202;50.866;12.750;2022-12-18T08:02:39;-10.90;91.20
4376;DHT22;2202;50.866;12.750;2022-12-18T08:05:07;-10.80;91.20
4376;DHT22;2202;50.866;12.750;2022-12-18T08:07:34;-10.70;91.20
4376;DHT22;2202;50.866;12.750;2022-12-18T08:10:00;-10.60;91.50
4376;DHT22;2202;50.866;12.750;2022-12-18T08:12:27;-10.50;91.50
4376;DHT22;2202;50.866;12.750;2022-12-18T08:14:54;-10.40;91.50
4376;DHT22;2202;50.866;12.750;2022-12-18T08:17:21;-10.30;91.70
4376;DHT22;2202;50.866;12.750;2022-12-18T08:19:49;-10.10;91.90
4376;DHT22;2202;50.866;12.750;2022-12-18T08:22:16;-10.00;92.00
4376;DHT22;2202;50.866;12.750;2022-12-18T08:24:43;-10.00;92.00
4376;DHT22;2202;50.866;12.750;2022-12-18T08:27:09;-10.00;91.90
4376;DHT22;2202;50.866;12.750;2022-12-18T08:29:36;-10.00;92.00
4376;DHT22;2202;50.866;12.750;2022-12-18T08:32:03;-9.90;92.00
4376;DHT22;2202;50.866;12.750;2022-12-18T08:34:30;-9.70;92.10
4376;DHT22;2202;50.866;12.750;2022-12-18T08:36:59;-9.60;92.10
4376;DHT22;2202;50.866;12.750;2022-12-18T08:39:25;-9.50;92.10
4376;DHT22;2202;50.866;12.750;2022-12-18T08:41:52;-9.30;92.00
4376;DHT22;2202;50.866;12.750;2022-12-18T08:44:33;-9.20;92.00
4376;DHT22;2202;50.866;12.750;2022-12-18T08:47:07;-9.10;91.80
4376;DHT22;2202;50.866;12.750;2022-12-18T08:49:34;-9.00;91.80
4376;DHT22;2202;50.866;12.750;2022-12-18T08:52:03;-8.90;91.70
4376;DHT22;2202;50.866;12.750;2022-12-18T08:54:30;-8.80;91.70
4376;DHT22;2202;50.866;12.750;2022-12-18T08:56:56;-8.80;92.00
4376;DHT22;2202;50.866;12.750;2022-12-18T08:59:23;-8.70;92.20
4376;DHT22;2202;50.866;12.750;2022-12-18T09:01:50;-8.50;92.20
4376;DHT22;2202;50.866;12.750;2022-12-18T09:04:19;-8.50;92.30
4376;DHT22;2202;50.866;12.750;2022-12-18T09:06:46;-8.40;92.50
4376;DHT22;2202;50.866;12.750;2022-12-18T09:09:14;-8.30;92.80
4376;DHT22;2202;50.866;12.750;2022-12-18T09:11:41;-8.10;92.90
4376;DHT22;2202;50.866;12.750;2022-12-18T09:14:09;-7.90;92.80
4376;DHT22;2202;50.866;12.750;2022-12-18T09:16:36;-7.70;92.80
4376;DHT22;2202;50.866;12.750;2022-12-18T09:19:04;-7.50;92.60
4376;DHT22;2202;50.866;12.750;2022-12-18T09:21:33;-7.40;92.50
4376;DHT22;2202;50.866;12.750;2022-12-18T09:24:00;-7.20;92.70
4376;DHT22;2202;50.866;12.750;2022-12-18T09:26:28;-7.10;92.60
4376;DHT22;2202;50.866;12.750;2022-12-18T09:28:56;-6.90;92.70
4376;DHT22;2202;50.866;12.750;2022-12-18T09:31:23;-6.70;92.70
4376;DHT22;2202;50.866;12.750;2022-12-18T09:33:50;-6.50;92.90
4376;DHT22;2202;50.866;12.750;2022-12-18T09:36:19;-6.30;93.10
4376;DHT22;2202;50.866;12.750;2022-12-18T09:38:45;-6.10;92.90
4376;DHT22;2202;50.866;12.750;2022-12-18T09:41:31;-6.00;92.60
4376;DHT22;2202;50.866;12.750;2022-12-18T09:44:01;-6.00;92.80
4376;DHT22;2202;50.866;12.750;2022-12-18T09:46:32;-5.80;93.00
4376;DHT22;2202;50.866;12.750;2022-12-18T09:49:02;-5.60;93.10
4376;DHT22;2202;50.866;12.750;2022-12-18T09:51:36;-5.40;93.00
4376;DHT22;2202;50.866;12.750;2022-12-18T09:54:06;-5.10;93.00
4376;DHT22;2202;50.866;12.750;2022-12-18T09:56:40;-4.80;92.60
4376;DHT22;2202;50.866;12.750;2022-12-18T09:59:18;-4.60;92.20
4376;DHT22;2202;50.866;12.750;2022-12-18T10:01:45;-4.40;91.70
4376;DHT22;2202;50.866;12.750;2022-12-18T10:04:12;-4.30;91.40
4376;DHT22;2202;50.866;12.750;2022-12-18T10:06:43;-4.10;91.10
4376;DHT22;2202;50.866;12.750;2022-12-18T10:09:19;-3.90;90.50
4376;DHT22;2202;50.866;12.750;2022-12-18T10:11:58;-3.70;90.00
4376;DHT22;2202;50.866;12.750;2022-12-18T10:14:33;-3.60;88.80
4376;DHT22;2202;50.866;12.750;2022-12-18T10:17:07;-3.60;88.20
4376;DHT22;2202;50.866;12.750;2022-12-18T10:19:42;-3.40;87.80
4376;DHT22;2202;50.866;12.750;2022-12-18T10:22:21;-3.30;87.40
4376;DHT22;2202;50.866;12.750;2022-12-18T10:24:54;-3.20;86.80
4376;DHT22;2202;50.866;12.750;2022-12-18T10:27:25;-3.10;86.40
4376;DHT22;2202;50.866;12.750;2022-12-18T10:29:53;-3.00;86.40
4376;DHT22;2202;50.866;12.750;2022-12-18T10:32:22;-2.80;86.20
4376;DHT22;2202;50.866;12.750;2022-12-18T10:34:50;-2.70;85.80
4376;DHT22;2202;50.866;12.750;2022-12-18T10:37:19;-2.60;85.00
4376;DHT22;2202;50.866;12.750;2022-12-18T10:39:47;-2.50;84.80
4376;DHT22;2202;50.866;12.750;2022-12-18T10:42:32;-2.40;84.60
4376;DHT22;2202;50.866;12.750;2022-12-18T10:45:02;-2.20;84.60
4376;DHT22;2202;50.866;12.750;2022-12-18T10:47:30;-2.10;84.20
4376;DHT22;2202;50.866;12.750;2022-12-18T10:49:57;-2.00;83.00
4376;DHT22;2202;50.866;12.750;2022-12-18T10:52:25;-1.90;81.80
4376;DHT22;2202;50.866;12.750;2022-12-18T10:54:54;-1.90;79.60
4376;DHT22;2202;50.866;12.750;2022-12-18T10:57:36;-1.90;75.80
4376;DHT22;2202;50.866;12.750;2022-12-18T11:00:22;-1.80;75.00
4376;DHT22;2202;50.866;12.750;2022-12-18T11:02:50;-1.70;74.20
4376;DHT22;2202;50.866;12.750;2022-12-18T11:05:26;-1.50;73.60
4376;DHT22;2202;50.866;12.750;2022-12-18T11:07:53;-1.40;73.80
4376;DHT22;2202;50.866;12.750;2022-12-18T11:10:22;-1.20;73.60
4376;DHT22;2202;50.866;12.750;2022-12-18T11:12:52;-1.10;72.80
4376;DHT22;2202;50.866;12.750;2022-12-18T11:15:20;-1.10;71.60
4376;DHT22;2202;50.866;12.750;2022-12-18T11:17:49;-0.90;71.20
4376;DHT22;2202;50.866;12.750;2022-12-18T11:20:27;-0.80;71.20
4376;DHT22;2202;50.866;12.750;2022-12-18T11:22:58;-0.70;71.00
4376;DHT22;2202;50.866;12.750;2022-12-18T11:25:25;-0.70;71.40
4376;DHT22;2202;50.866;12.750;2022-12-18T11:27:56;-0.60;70.80
4376;DHT22;2202;50.866;12.750;2022-12-18T11:30:25;-0.60;69.40
4376;DHT22;2202;50.866;12.750;2022-12-18T11:32:55;-0.50;69.00
4376;DHT22;2202;50.866;12.750;2022-12-18T11:35:39;-0.50;69.40
4376;DHT22;2202;50.866;12.750;2022-12-18T11:38:17;-0.40;70.20
4376;DHT22;2202;50.866;12.750;2022-12-18T11:40:49;-0.40;68.40
4376;DHT22;2202;50.866;12.750;2022-12-18T11:43:23;-0.30;67.80
4376;DHT22;2202;50.866;12.750;2022-12-18T11:45:53;-0.20;67.40
4376;DHT22;2202;50.866;12.750;2022-12-18T11:48:24;-0.20;66.20
4376;DHT22;2202;50.866;12.750;2022-12-18T11:50:53;-0.20;64.60
4376;DHT22;2202;50.866;12.750;2022-12-18T11:53:20;-0.20;65.20
4376;DHT22;2202;50.866;12.750;2022-12-18T11:55:56;-0.20;65.60
4376;DHT22;2202;50.866;12.750;2022-12-18T11:58:34;-0.20;65.60
4376;DHT22;2202;50.866;12.750;2022-12-18T12:01:13;-0.20;65.60
4376;DHT22;2202;50.866;12.750;2022-12-18T12:04:04;-0.10;64.20
4376;DHT22;2202;50.866;12.750;2022-12-18T12:06:37;-0.10;63.20
4376;DHT22;2202;50.866;12.750;2022-12-18T12:09:10;-0.10;62.80
4376;DHT22;2202;50.866;12.750;2022-12-18T12:11:50;-0.10;63.00
4376;DHT22;2202;50.866;12.750;2022-12-18T12:14:42;0.00;62.60
4376;DHT22;2202;50.866;12.750;2022-12-18T12:17:15;0.10;62.40
4376;DHT22;2202;50.866;12.750;2022-12-18T12:19:48;0.10;61.60
4376;DHT22;2202;50.866;12.750;2022-12-18T12:22:23;0.10;61.40
4376;DHT22;2202;50.866;12.750;2022-12-18T12:25:01;0.10;61.00
4376;DHT22;2202;50.866;12.750;2022-12-18T12:27:38;0.10;60.20
4376;DHT22;2202;50.866;12.750;2022-12-18T12:30:14;0.10;61.00
4376;DHT22;2202;50.866;12.750;2022-12-18T12:32:53;0.20;61.40
4376;DHT22;2202;50.866;12.750;2022-12-18T12:35:32;0.30;61.20
4376;DHT22;2202;50.866;12.750;2022-12-18T12:38:08;0.40;60.40
4376;DHT22;2202;50.866;12.750;2022-12-18T12:40:39;0.50;59.90
4376;DHT22;2202;50.866;12.750;2022-12-18T12:43:22;0.50;60.40
4376;DHT22;2202;50.866;12.750;2022-12-18T12:45:53;0.60;60.40
4376;DHT22;2202;50.866;12.750;2022-12-18T12:48:37;0.50;60.80
4376;DHT22;2202;50.866;12.750;2022-12-18T12:51:14;0.60;61.40
4376;DHT22;2202;50.866;12.750;2022-12-18T12:53:42;0.60;61.40
4376;DHT22;2202;50.866;12.750;2022-12-18T12:56:11;0.70;61.60
4376;DHT22;2202;50.866;12.750;2022-12-18T12:58:45;0.70;62.00
4376;DHT22;2202;50.866;12.750;2022-12-18T13:01:22;0.80;62.40
4376;DHT22;2202;50.866;12.750;2022-12-18T13:03:58;0.80;62.00
4376;DHT22;2202;50.866;12.750;2022-12-18T13:06:37;0.80;62.40
4376;DHT22;2202;50.866;12.750;2022-12-18T13:09:07;0.90;62.60
4376;DHT22;2202;50.866;12.750;2022-12-18T13:11:38;0.80;61.60
4376;DHT22;2202;50.866;12.750;2022-12-18T13:14:29;0.70;60.20
4376;DHT22;2202;50.866;12.750;2022-12-18T13:17:17;0.60;61.20
4376;DHT22;2202;50.866;12.750;2022-12-18T13:20:04;0.60;61.80
4376;DHT22;2202;50.866;12.750;2022-12-18T13:22:35;0.70;61.40
4376;DHT22;2202;50.866;12.750;2022-12-18T13:25:04;0.60;59.40
4376;DHT22;2202;50.866;12.750;2022-12-18T13:28:08;0.50;60.10
4376;DHT22;2202;50.866;12.750;2022-12-18T13:30:50;0.50;60.20
4376;DHT22;2202;50.866;12.750;2022-12-18T13:33:40;0.40;60.40
4376;DHT22;2202;50.866;12.750;2022-12-18T13:36:16;0.30;60.20
4376;DHT22;2202;50.866;12.750;2022-12-18T13:38:43;0.10;59.60
4376;DHT22;2202;50.866;12.750;2022-12-18T13:41:24;0.10;60.60
4376;DHT22;2202;50.866;12.750;2022-12-18T13:43:53;0.10;60.80
4376;DHT22;2202;50.866;12.750;2022-12-18T13:46:25;0.00;60.40
4376;DHT22;2202;50.866;12.750;2022-12-18T13:49:00;-0.10;61.00
4376;DHT22;2202;50.866;12.750;2022-12-18T13:51:29;-0.10;61.00
4376;DHT22;2202;50.866;12.750;2022-12-18T13:53:59;-0.20;60.20
4376;DHT22;2202;50.866;12.750;2022-12-18T13:56:28;-0.30;60.80
4376;DHT22;2202;50.866;12.750;2022-12-18T13:59:16;-0.40;60.80
4376;DHT22;2202;50.866;12.750;2022-12-18T14:01:45;-0.60;61.80
4376;DHT22;2202;50.866;12.750;2022-12-18T14:04:19;-0.70;62.20
4376;DHT22;2202;50.866;12.750;2022-12-18T14:06:47;-0.90;62.20
4376;DHT22;2202;50.866;12.750;2022-12-18T14:09:17;-1.00;62.20
4376;DHT22;2202;50.866;12.750;2022-12-18T14:11:47;-1.10;62.40
4376;DHT22;2202;50.866;12.750;2022-12-18T14:14:15;-1.20;63.00
4376;DHT22;2202;50.866;12.750;2022-12-18T14:16:43;-1.30;63.40
4376;DHT22;2202;50.866;12.750;2022-12-18T14:19:13;-1.40;63.60
4376;DHT22;2202;50.866;12.750;2022-12-18T14:21:46;-1.50;63.80
4376;DHT22;2202;50.866;12.750;2022-12-18T14:24:15;-1.60;63.20
4376;DHT22;2202;50.866;12.750;2022-12-18T14:26:43;-1.70;63.20
4376;DHT22;2202;50.866;12.750;2022-12-18T14:29:22;-1.70;63.60
4376;DHT22;2202;50.866;12.750;2022-12-18T14:32:10;-1.90;63.40
4376;DHT22;2202;50.866;12.750;2022-12-18T14:34:37;-2.00;63.80
4376;DHT22;2202;50.866;12.750;2022-12-18T14:37:08;-2.10;64.60
4376;DHT22;2202;50.866;12.750;2022-12-18T14:39:36;-2.10;64.80
4376;DHT22;2202;50.866;12.750;2022-12-18T14:42:02;-2.20;64.60
4376;DHT22;2202;50.866;12.750;2022-12-18T14:44:29;-2.30;65.40
4376;DHT22;2202;50.866;12.750;2022-12-18T14:46:56;-2.30;65.40
4376;DHT22;2202;50.866;12.750;2022-12-18T14:49:26;-2.40;65.20
4376;DHT22;2202;50.866;12.750;2022-12-18T14:51:54;-2.40;66.00
4376;DHT22;2202;50.866;12.750;2022-12-18T14:54:24;-2.50;66.20
4376;DHT22;2202;50.866;12.750;2022-12-18T14:56:55;-2.50;66.00
4376;DHT22;2202;50.866;12.750;2022-12-18T14:59:25;-2.60;66.00
4376;DHT22;2202;50.866;12.750;2022-12-18T15:02:01;-2.60;66.40
4376;DHT22;2202;50.866;12.750;2022-12-18T15:04:31;-2.70;66.00
4376;DHT22;2202;50.866;12.750;2022-12-18T15:07:12;-2.70;66.80
4376;DHT22;2202;50.866;12.750;2022-12-18T15:09:42;-2.80;67.00
4376;DHT22;2202;50.866;12.750;2022-12-18T15:12:24;-2.80;67.40
4376;DHT22;2202;50.866;12.750;2022-12-18T15:14:52;-2.90;67.60
4376;DHT22;2202;50.866;12.750;2022-12-18T15:17:21;-2.90;67.80
4376;DHT22;2202;50.866;12.750;2022-12-18T15:19:50;-3.00;68.40
4376;DHT22;2202;50.866;12.750;2022-12-18T15:22:24;-3.10;68.40
4376;DHT22;2202;50.866;12.750;2022-12-18T15:24:54;-3.20;67.80
4376;DHT22;2202;50.866;12.750;2022-12-18T15:27:25;-3.20;68.60
4376;DHT22;2202;50.866;12.750;2022-12-18T15:30:15;-3.20;68.80
4376;DHT22;2202;50.866;12.750;2022-12-18T15:32:43;-3.30;69.00
4376;DHT22;2202;50.866;12.750;2022-12-18T15:35:14;-3.30;68.80
4376;DHT22;2202;50.866;12.750;2022-12-18T15:37:41;-3.30;68.80
4376;DHT22;2202;50.866;12.750;2022-12-18T15:40:12;-3.30;68.40
4376;DHT22;2202;50.866;12.750;2022-12-18T15:42:39;-3.30;68.80
4376;DHT22;2202;50.866;12.750;2022-12-18T15:45:24;-3.30;68.80
4376;DHT22;2202;50.866;12.750;2022-12-18T15:47:50;-3.30;68.80
4376;DHT22;2202;50.866;12.750;2022-12-18T15:50:17;-3.20;68.00
4376;DHT22;2202;50.866;12.750;2022-12-18T15:52:46;-3.20;66.80
4376;DHT22;2202;50.866;12.750;2022-12-18T15:55:17;-3.20;65.40
4376;DHT22;2202;50.866;12.750;2022-12-18T15:58:01;-3.20;66.00
4376;DHT22;2202;50.866;12.750;2022-12-18T16:00:28;-3.10;65.40